sensor_id;sensor_type;location;lat;lon;timestamp;P1;durP1;ratioP1;P2;durP2;ratioP2
31130;SDS011;20292;50.944;4.034;2022-09-30T00:01:21;21.80;;;13.80;;
31130;SDS011;20292;50.944;4.034;2022-09-30T00:03:47;24.20;;;13.77;;
31130;SDS011;20292;50.944;4.034;2022-09-30T00:06:13;20.05;;;12.65;;
31130;SDS011;20292;50.944;4.034;2022-09-30T00:08:40;22.75;;;12.73;;
31130;SDS011;20292;50.944;4.034;2022-09-30T00:11:07;19.70;;;12.38;;
31130;SDS011;20292;50.944;4.034;2022-09-30T00:13:36;18.58;;;11.80;;
31130;SDS011;20292;50.944;4.034;2022-09-30T00:16:03;19.20;;;11.55;;
31130;SDS011;20292;50.944;4.034;2022-09-30T00:18:30;15.88;;;12.07;;
31130;SDS011;20292;50.944;4.034;2022-09-30T00:20:56;19.35;;;12.88;;
31130;SDS011;20292;50.944;4.034;2022-09-30T00:23:21;15.38;;;11.60;;
31130;SDS011;20292;50.944;4.034;2022-09-30T00:25:47;19.80;;;12.00;;
31130;SDS011;20292;50.944;4.034;2022-09-30T00:28:14;16.30;;;11.13;;
31130;SDS011;20292;50.944;4.034;2022-09-30T00:30:40;26.75;;;13.38;;
31130;SDS011;20292;50.944;4.034;2022-09-30T00:33:06;22.77;;;13.57;;
31130;SDS011;20292;50.944;4.034;2022-09-30T00:35:32;24.15;;;14.05;;
31130;SDS011;20292;50.944;4.034;2022-09-30T00:37:57;23.02;;;13.00;;
31130;SDS011;20292;50.944;4.034;2022-09-30T00:40:24;22.02;;;14.20;;
31130;SDS011;20292;50.944;4.034;2022-09-30T00:42:51;23.55;;;13.93;;
31130;SDS011;20292;50.944;4.034;2022-09-30T00:45:17;21.38;;;12.80;;
31130;SDS011;20292;50.944;4.034;2022-09-30T00:53:12;20.70;;;12.68;;
31130;SDS011;20292;50.944;4.034;2022-09-30T00:58:27;22.52;;;13.70;;
31130;SDS011;20292;50.944;4.034;2022-09-30T01:00:54;19.95;;;13.18;;
31130;SDS011;20292;50.944;4.034;2022-09-30T01:03:22;18.70;;;12.25;;
31130;SDS011;20292;50.944;4.034;2022-09-30T01:05:48;24.55;;;13.23;;
31130;SDS011;20292;50.944;4.034;2022-09-30T01:08:15;20.92;;;11.55;;
31130;SDS011;20292;50.944;4.034;2022-09-30T01:10:42;21.20;;;12.18;;
31130;SDS011;20292;50.944;4.034;2022-09-30T01:13:08;17.35;;;12.00;;
31130;SDS011;20292;50.944;4.034;2022-09-30T01:23:51;20.45;;;12.25;;
31130;SDS011;20292;50.944;4.034;2022-09-30T01:29:27;21.00;;;13.18;;
31130;SDS011;20292;50.944;4.034;2022-09-30T01:32:06;20.85;;;13.80;;
31130;SDS011;20292;50.944;4.034;2022-09-30T01:40:13;21.40;;;13.70;;
31130;SDS011;20292;50.944;4.034;2022-09-30T01:42:59;20.13;;;13.32;;
31130;SDS011;20292;50.944;4.034;2022-09-30T01:48:00;18.77;;;13.43;;
31130;SDS011;20292;50.944;4.034;2022-09-30T01:50:58;24.55;;;15.45;;
31130;SDS011;20292;50.944;4.034;2022-09-30T01:53:42;22.67;;;15.38;;
31130;SDS011;20292;50.944;4.034;2022-09-30T02:01:39;18.23;;;13.80;;
31130;SDS011;20292;50.944;4.034;2022-09-30T02:04:17;19.45;;;14.70;;
31130;SDS011;20292;50.944;4.034;2022-09-30T02:06:58;21.50;;;14.90;;
31130;SDS011;20292;50.944;4.034;2022-09-30T02:09:29;21.23;;;14.15;;
31130;SDS011;20292;50.944;4.034;2022-09-30T02:12:06;19.85;;;14.25;;
31130;SDS011;20292;50.944;4.034;2022-09-30T02:14:43;19.63;;;13.55;;
31130;SDS011;20292;50.944;4.034;2022-09-30T02:17:17;18.92;;;13.93;;
31130;SDS011;20292;50.944;4.034;2022-09-30T02:19:53;22.27;;;14.47;;
31130;SDS011;20292;50.944;4.034;2022-09-30T02:22:25;25.88;;;15.90;;
31130;SDS011;20292;50.944;4.034;2022-09-30T02:25:07;22.90;;;15.43;;
31130;SDS011;20292;50.944;4.034;2022-09-30T02:27:40;23.42;;;16.50;;
31130;SDS011;20292;50.944;4.034;2022-09-30T02:30:11;25.45;;;15.38;;
31130;SDS011;20292;50.944;4.034;2022-09-30T02:32:49;22.65;;;15.68;;
31130;SDS011;20292;50.944;4.034;2022-09-30T02:35:20;21.52;;;15.75;;
31130;SDS011;20292;50.944;4.034;2022-09-30T02:37:58;24.23;;;15.10;;
31130;SDS011;20292;50.944;4.034;2022-09-30T02:40:45;22.25;;;14.75;;
31130;SDS011;20292;50.944;4.034;2022-09-30T02:43:16;24.85;;;16.08;;
31130;SDS011;20292;50.944;4.034;2022-09-30T02:48:34;20.08;;;15.27;;
31130;SDS011;20292;50.944;4.034;2022-09-30T02:51:34;22.25;;;15.25;;
31130;SDS011;20292;50.944;4.034;2022-09-30T02:54:38;20.58;;;15.13;;
31130;SDS011;20292;50.944;4.034;2022-09-30T02:57:34;20.10;;;14.82;;
31130;SDS011;20292;50.944;4.034;2022-09-30T03:00:06;21.40;;;14.95;;
31130;SDS011;20292;50.944;4.034;2022-09-30T03:02:32;20.08;;;15.50;;
31130;SDS011;20292;50.944;4.034;2022-09-30T03:04:58;21.48;;;15.15;;
31130;SDS011;20292;50.944;4.034;2022-09-30T03:07:24;22.50;;;15.75;;
31130;SDS011;20292;50.944;4.034;2022-09-30T03:09:54;24.30;;;15.55;;
31130;SDS011;20292;50.944;4.034;2022-09-30T03:12:25;21.08;;;15.25;;
31130;SDS011;20292;50.944;4.034;2022-09-30T03:43:35;19.05;;;15.38;;
31130;SDS011;20292;50.944;4.034;2022-09-30T03:49:04;21.52;;;15.70;;
31130;SDS011;20292;50.944;4.034;2022-09-30T03:51:36;21.25;;;16.02;;
31130;SDS011;20292;50.944;4.034;2022-09-30T03:54:07;23.33;;;16.27;;
31130;SDS011;20292;50.944;4.034;2022-09-30T03:56:35;23.10;;;17.60;;
31130;SDS011;20292;50.944;4.034;2022-09-30T03:59:07;24.42;;;17.25;;
31130;SDS011;20292;50.944;4.034;2022-09-30T04:01:34;25.83;;;17.08;;
31130;SDS011;20292;50.944;4.034;2022-09-30T04:04:00;23.38;;;16.85;;
31130;SDS011;20292;50.944;4.034;2022-09-30T04:06:26;23.90;;;17.45;;
31130;SDS011;20292;50.944;4.034;2022-09-30T04:08:51;28.40;;;16.83;;
31130;SDS011;20292;50.944;4.034;2022-09-30T04:11:19;21.95;;;16.65;;
31130;SDS011;20292;50.944;4.034;2022-09-30T04:13:45;23.48;;;17.77;;
31130;SDS011;20292;50.944;4.034;2022-09-30T04:16:11;24.98;;;17.98;;
31130;SDS011;20292;50.944;4.034;2022-09-30T04:18:37;22.98;;;17.23;;
31130;SDS011;20292;50.944;4.034;2022-09-30T04:21:09;25.65;;;16.45;;
31130;SDS011;20292;50.944;4.034;2022-09-30T04:23:37;25.38;;;18.02;;
31130;SDS011;20292;50.944;4.034;2022-09-30T04:26:09;23.88;;;18.23;;
31130;SDS011;20292;50.944;4.034;2022-09-30T04:28:38;28.92;;;18.13;;
31130;SDS011;20292;50.944;4.034;2022-09-30T04:31:04;25.98;;;18.75;;
31130;SDS011;20292;50.944;4.034;2022-09-30T04:33:31;29.98;;;18.48;;
31130;SDS011;20292;50.944;4.034;2022-09-30T04:35:57;25.40;;;19.13;;
31130;SDS011;20292;50.944;4.034;2022-09-30T04:38:24;26.60;;;18.75;;
31130;SDS011;20292;50.944;4.034;2022-09-30T04:40:51;24.45;;;18.10;;
31130;SDS011;20292;50.944;4.034;2022-09-30T04:43:19;25.67;;;18.75;;
31130;SDS011;20292;50.944;4.034;2022-09-30T04:45:47;26.92;;;18.42;;
31130;SDS011;20292;50.944;4.034;2022-09-30T04:48:14;24.70;;;18.13;;
31130;SDS011;20292;50.944;4.034;2022-09-30T04:50:40;26.00;;;20.05;;
31130;SDS011;20292;50.944;4.034;2022-09-30T04:53:07;29.20;;;19.13;;
31130;SDS011;20292;50.944;4.034;2022-09-30T04:55:33;29.00;;;19.00;;
31130;SDS011;20292;50.944;4.034;2022-09-30T04:57:59;26.15;;;18.50;;
31130;SDS011;20292;50.944;4.034;2022-09-30T05:00:25;23.60;;;18.60;;
31130;SDS011;20292;50.944;4.034;2022-09-30T05:02:51;26.92;;;19.17;;
31130;SDS011;20292;50.944;4.034;2022-09-30T05:05:16;29.30;;;19.45;;
31130;SDS011;20292;50.944;4.034;2022-09-30T05:07:42;34.20;;;20.05;;
31130;SDS011;20292;50.944;4.034;2022-09-30T05:10:08;31.30;;;20.27;;
31130;SDS011;20292;50.944;4.034;2022-09-30T05:12:35;28.02;;;20.67;;
31130;SDS011;20292;50.944;4.034;2022-09-30T05:15:02;30.10;;;19.85;;
31130;SDS011;20292;50.944;4.034;2022-09-30T05:17:29;33.00;;;19.83;;
31130;SDS011;20292;50.944;4.034;2022-09-30T05:19:55;29.88;;;19.17;;
31130;SDS011;20292;50.944;4.034;2022-09-30T05:22:21;30.13;;;19.95;;
31130;SDS011;20292;50.944;4.034;2022-09-30T05:24:48;29.13;;;19.30;;
31130;SDS011;20292;50.944;4.034;2022-09-30T05:27:18;28.75;;;18.90;;
31130;SDS011;20292;50.944;4.034;2022-09-30T05:29:44;25.33;;;19.25;;
31130;SDS011;20292;50.944;4.034;2022-09-30T05:32:09;33.30;;;19.25;;
31130;SDS011;20292;50.944;4.034;2022-09-30T05:34:36;33.90;;;19.40;;
31130;SDS011;20292;50.944;4.034;2022-09-30T05:37:03;32.63;;;19.35;;
31130;SDS011;20292;50.944;4.034;2022-09-30T05:39:29;31.38;;;20.33;;
31130;SDS011;20292;50.944;4.034;2022-09-30T05:41:55;27.45;;;19.38;;
31130;SDS011;20292;50.944;4.034;2022-09-30T05:44:22;33.97;;;19.63;;
31130;SDS011;20292;50.944;4.034;2022-09-30T05:46:47;27.10;;;20.08;;
31130;SDS011;20292;50.944;4.034;2022-09-30T05:49:13;31.58;;;21.38;;
31130;SDS011;20292;50.944;4.034;2022-09-30T05:51:38;32.50;;;19.50;;
31130;SDS011;20292;50.944;4.034;2022-09-30T05:54:04;33.72;;;20.42;;
31130;SDS011;20292;50.944;4.034;2022-09-30T05:56:29;31.05;;;19.73;;
31130;SDS011;20292;50.944;4.034;2022-09-30T05:58:55;32.80;;;20.35;;
31130;SDS011;20292;50.944;4.034;2022-09-30T06:01:21;29.38;;;19.98;;
31130;SDS011;20292;50.944;4.034;2022-09-30T06:03:46;27.50;;;19.80;;
31130;SDS011;20292;50.944;4.034;2022-09-30T06:06:12;30.45;;;19.52;;
31130;SDS011;20292;50.944;4.034;2022-09-30T06:08:39;32.40;;;20.20;;
31130;SDS011;20292;50.944;4.034;2022-09-30T06:11:09;28.27;;;19.27;;
31130;SDS011;20292;50.944;4.034;2022-09-30T06:13:36;33.58;;;18.95;;
31130;SDS011;20292;50.944;4.034;2022-09-30T06:16:03;35.58;;;18.92;;
31130;SDS011;20292;50.944;4.034;2022-09-30T06:18:30;34.47;;;18.10;;
31130;SDS011;20292;50.944;4.034;2022-09-30T06:20:59;25.30;;;17.15;;
31130;SDS011;20292;50.944;4.034;2022-09-30T06:23:28;35.70;;;19.00;;
31130;SDS011;20292;50.944;4.034;2022-09-30T06:25:54;29.67;;;17.70;;
31130;SDS011;20292;50.944;4.034;2022-09-30T06:28:21;28.52;;;18.20;;
31130;SDS011;20292;50.944;4.034;2022-09-30T06:30:47;28.95;;;18.33;;
31130;SDS011;20292;50.944;4.034;2022-09-30T06:33:13;31.45;;;18.52;;
31130;SDS011;20292;50.944;4.034;2022-09-30T06:35:39;25.23;;;17.40;;
31130;SDS011;20292;50.944;4.034;2022-09-30T06:38:06;23.17;;;17.17;;
31130;SDS011;20292;50.944;4.034;2022-09-30T06:40:33;27.17;;;17.73;;
31130;SDS011;20292;50.944;4.034;2022-09-30T06:42:59;30.42;;;17.55;;
31130;SDS011;20292;50.944;4.034;2022-09-30T06:45:25;24.30;;;18.40;;
31130;SDS011;20292;50.944;4.034;2022-09-30T06:48:01;29.83;;;19.05;;
31130;SDS011;20292;50.944;4.034;2022-09-30T06:50:29;31.90;;;18.00;;
31130;SDS011;20292;50.944;4.034;2022-09-30T06:52:59;26.40;;;18.48;;
31130;SDS011;20292;50.944;4.034;2022-09-30T06:55:26;28.08;;;18.50;;
31130;SDS011;20292;50.944;4.034;2022-09-30T06:57:53;35.08;;;18.73;;
31130;SDS011;20292;50.944;4.034;2022-09-30T07:00:21;32.17;;;19.35;;
31130;SDS011;20292;50.944;4.034;2022-09-30T07:02:47;29.38;;;19.60;;
31130;SDS011;20292;50.944;4.034;2022-09-30T07:05:13;26.00;;;18.23;;
31130;SDS011;20292;50.944;4.034;2022-09-30T07:07:40;27.95;;;19.42;;
31130;SDS011;20292;50.944;4.034;2022-09-30T07:10:07;24.38;;;18.75;;
31130;SDS011;20292;50.944;4.034;2022-09-30T07:12:34;26.02;;;20.02;;
31130;SDS011;20292;50.944;4.034;2022-09-30T07:15:00;30.33;;;18.85;;
31130;SDS011;20292;50.944;4.034;2022-09-30T07:17:26;27.08;;;19.30;;
31130;SDS011;20292;50.944;4.034;2022-09-30T07:19:52;27.65;;;19.55;;
31130;SDS011;20292;50.944;4.034;2022-09-30T07:22:18;24.55;;;18.10;;
31130;SDS011;20292;50.944;4.034;2022-09-30T07:24:58;28.90;;;19.05;;
31130;SDS011;20292;50.944;4.034;2022-09-30T07:27:25;30.98;;;19.90;;
31130;SDS011;20292;50.944;4.034;2022-09-30T07:29:52;31.92;;;19.23;;
31130;SDS011;20292;50.944;4.034;2022-09-30T07:32:19;31.27;;;19.70;;
31130;SDS011;20292;50.944;4.034;2022-09-30T07:34:45;33.92;;;18.50;;
31130;SDS011;20292;50.944;4.034;2022-09-30T07:37:12;39.20;;;19.25;;
31130;SDS011;20292;50.944;4.034;2022-09-30T07:39:40;29.77;;;18.33;;
31130;SDS011;20292;50.944;4.034;2022-09-30T07:42:06;33.78;;;18.90;;
31130;SDS011;20292;50.944;4.034;2022-09-30T07:44:32;27.25;;;17.58;;
31130;SDS011;20292;50.944;4.034;2022-09-30T07:46:59;29.42;;;18.33;;
31130;SDS011;20292;50.944;4.034;2022-09-30T07:49:25;30.90;;;17.10;;
31130;SDS011;20292;50.944;4.034;2022-09-30T07:51:52;29.52;;;16.10;;
31130;SDS011;20292;50.944;4.034;2022-09-30T07:54:21;23.38;;;13.25;;
31130;SDS011;20292;50.944;4.034;2022-09-30T07:56:49;22.17;;;12.73;;
31130;SDS011;20292;50.944;4.034;2022-09-30T07:59:16;17.88;;;12.00;;
31130;SDS011;20292;50.944;4.034;2022-09-30T08:01:42;24.15;;;11.18;;
31130;SDS011;20292;50.944;4.034;2022-09-30T08:04:08;20.63;;;11.10;;
31130;SDS011;20292;50.944;4.034;2022-09-30T08:06:36;17.90;;;10.20;;
31130;SDS011;20292;50.944;4.034;2022-09-30T08:09:04;19.08;;;9.90;;
31130;SDS011;20292;50.944;4.034;2022-09-30T08:11:33;18.42;;;9.75;;
31130;SDS011;20292;50.944;4.034;2022-09-30T08:14:00;17.77;;;9.90;;
31130;SDS011;20292;50.944;4.034;2022-09-30T08:16:26;15.55;;;9.90;;
31130;SDS011;20292;50.944;4.034;2022-09-30T08:18:58;22.15;;;10.55;;
31130;SDS011;20292;50.944;4.034;2022-09-30T08:21:26;16.17;;;9.45;;
31130;SDS011;20292;50.944;4.034;2022-09-30T08:23:52;15.23;;;9.35;;
31130;SDS011;20292;50.944;4.034;2022-09-30T08:26:17;17.70;;;9.00;;
31130;SDS011;20292;50.944;4.034;2022-09-30T08:28:44;14.93;;;8.65;;
31130;SDS011;20292;50.944;4.034;2022-09-30T08:31:13;14.50;;;8.02;;
31130;SDS011;20292;50.944;4.034;2022-09-30T08:33:43;13.43;;;9.18;;
31130;SDS011;20292;50.944;4.034;2022-09-30T08:36:10;17.40;;;9.27;;
31130;SDS011;20292;50.944;4.034;2022-09-30T08:38:37;13.65;;;8.30;;
31130;SDS011;20292;50.944;4.034;2022-09-30T08:46:56;12.52;;;8.55;;
31130;SDS011;20292;50.944;4.034;2022-09-30T08:52:24;19.52;;;8.40;;
31130;SDS011;20292;50.944;4.034;2022-09-30T08:54:53;18.70;;;8.20;;
31130;SDS011;20292;50.944;4.034;2022-09-30T08:57:20;12.70;;;7.70;;
31130;SDS011;20292;50.944;4.034;2022-09-30T08:59:49;15.43;;;8.73;;
31130;SDS011;20292;50.944;4.034;2022-09-30T09:02:22;15.50;;;8.10;;
31130;SDS011;20292;50.944;4.034;2022-09-30T09:04:55;18.38;;;7.88;;
31130;SDS011;20292;50.944;4.034;2022-09-30T09:07:31;13.77;;;7.70;;
31130;SDS011;20292;50.944;4.034;2022-09-30T09:10:09;14.60;;;7.50;;
31130;SDS011;20292;50.944;4.034;2022-09-30T09:13:08;18.35;;;7.32;;
31130;SDS011;20292;50.944;4.034;2022-09-30T09:15:44;15.35;;;7.38;;
31130;SDS011;20292;50.944;4.034;2022-09-30T09:21:22;12.20;;;7.30;;
31130;SDS011;20292;50.944;4.034;2022-09-30T09:24:11;14.48;;;7.60;;
31130;SDS011;20292;50.944;4.034;2022-09-30T09:26:43;13.32;;;7.15;;
31130;SDS011;20292;50.944;4.034;2022-09-30T09:32:13;11.82;;;6.90;;
31130;SDS011;20292;50.944;4.034;2022-09-30T09:34:43;14.38;;;7.47;;
31130;SDS011;20292;50.944;4.034;2022-09-30T09:39:47;15.20;;;8.65;;
31130;SDS011;20292;50.944;4.034;2022-09-30T09:44:57;12.50;;;6.72;;
31130;SDS011;20292;50.944;4.034;2022-09-30T09:47:27;15.65;;;6.65;;
31130;SDS011;20292;50.944;4.034;2022-09-30T09:49:54;10.05;;;6.20;;
31130;SDS011;20292;50.944;4.034;2022-09-30T09:55:12;10.77;;;6.10;;
31130;SDS011;20292;50.944;4.034;2022-09-30T09:57:40;11.98;;;6.57;;
31130;SDS011;20292;50.944;4.034;2022-09-30T10:05:25;13.05;;;6.30;;
31130;SDS011;20292;50.944;4.034;2022-09-30T10:08:06;15.07;;;7.30;;
31130;SDS011;20292;50.944;4.034;2022-09-30T10:11:16;9.98;;;6.70;;
31130;SDS011;20292;50.944;4.034;2022-09-30T10:13:39;16.02;;;6.28;;
31130;SDS011;20292;50.944;4.034;2022-09-30T10:16:21;18.25;;;6.80;;
31130;SDS011;20292;50.944;4.034;2022-09-30T10:18:55;14.18;;;6.90;;
31130;SDS011;20292;50.944;4.034;2022-09-30T10:21:23;17.70;;;6.50;;
31130;SDS011;20292;50.944;4.034;2022-09-30T10:23:51;13.70;;;6.80;;
31130;SDS011;20292;50.944;4.034;2022-09-30T10:26:18;11.90;;;5.80;;
31130;SDS011;20292;50.944;4.034;2022-09-30T10:31:35;12.98;;;6.30;;
31130;SDS011;20292;50.944;4.034;2022-09-30T10:34:13;13.30;;;6.70;;
31130;SDS011;20292;50.944;4.034;2022-09-30T10:36:53;10.80;;;6.47;;
31130;SDS011;20292;50.944;4.034;2022-09-30T10:39:31;11.23;;;5.60;;
31130;SDS011;20292;50.944;4.034;2022-09-30T10:42:06;11.95;;;5.80;;
31130;SDS011;20292;50.944;4.034;2022-09-30T10:44:51;13.90;;;5.57;;
31130;SDS011;20292;50.944;4.034;2022-09-30T10:47:41;11.60;;;6.00;;
31130;SDS011;20292;50.944;4.034;2022-09-30T10:50:12;11.23;;;6.53;;
31130;SDS011;20292;50.944;4.034;2022-09-30T10:58:02;12.55;;;6.80;;
31130;SDS011;20292;50.944;4.034;2022-09-30T11:04:10;13.13;;;6.15;;
31130;SDS011;20292;50.944;4.034;2022-09-30T11:06:46;16.42;;;9.40;;
31130;SDS011;20292;50.944;4.034;2022-09-30T11:11:57;10.20;;;6.47;;
31130;SDS011;20292;50.944;4.034;2022-09-30T11:14:29;12.75;;;7.25;;
31130;SDS011;20292;50.944;4.034;2022-09-30T11:19:36;17.77;;;6.43;;
31130;SDS011;20292;50.944;4.034;2022-09-30T11:22:18;9.85;;;6.30;;
31130;SDS011;20292;50.944;4.034;2022-09-30T11:24:51;15.98;;;5.53;;
31130;SDS011;20292;50.944;4.034;2022-09-30T11:30:17;18.20;;;6.10;;
31130;SDS011;20292;50.944;4.034;2022-09-30T11:41:25;12.27;;;7.75;;
31130;SDS011;20292;50.944;4.034;2022-09-30T11:44:13;13.82;;;5.30;;
31130;SDS011;20292;50.944;4.034;2022-09-30T11:47:01;9.60;;;4.85;;
31130;SDS011;20292;50.944;4.034;2022-09-30T11:49:58;8.18;;;5.13;;
31130;SDS011;20292;50.944;4.034;2022-09-30T11:58:10;9.93;;;6.05;;
31130;SDS011;20292;50.944;4.034;2022-09-30T12:00:40;10.95;;;6.07;;
31130;SDS011;20292;50.944;4.034;2022-09-30T12:05:47;11.10;;;7.20;;
31130;SDS011;20292;50.944;4.034;2022-09-30T12:08:23;8.90;;;5.57;;
31130;SDS011;20292;50.944;4.034;2022-09-30T12:10:59;9.57;;;5.90;;
31130;SDS011;20292;50.944;4.034;2022-09-30T12:13:36;7.43;;;5.25;;
31130;SDS011;20292;50.944;4.034;2022-09-30T12:16:06;10.93;;;6.13;;
31130;SDS011;20292;50.944;4.034;2022-09-30T12:18:39;8.73;;;5.30;;
31130;SDS011;20292;50.944;4.034;2022-09-30T12:21:21;7.70;;;5.60;;
31130;SDS011;20292;50.944;4.034;2022-09-30T12:24:01;8.77;;;5.18;;
31130;SDS011;20292;50.944;4.034;2022-09-30T12:26:46;8.07;;;4.80;;
31130;SDS011;20292;50.944;4.034;2022-09-30T12:29:27;7.03;;;5.07;;
31130;SDS011;20292;50.944;4.034;2022-09-30T12:32:34;6.45;;;4.03;;
31130;SDS011;20292;50.944;4.034;2022-09-30T12:37:49;13.95;;;5.18;;
31130;SDS011;20292;50.944;4.034;2022-09-30T12:40:52;7.07;;;4.25;;
31130;SDS011;20292;50.944;4.034;2022-09-30T12:43:27;10.77;;;4.47;;
31130;SDS011;20292;50.944;4.034;2022-09-30T12:49:05;9.43;;;5.85;;
31130;SDS011;20292;50.944;4.034;2022-09-30T12:51:40;10.88;;;5.82;;
31130;SDS011;20292;50.944;4.034;2022-09-30T12:54:14;10.13;;;5.00;;
31130;SDS011;20292;50.944;4.034;2022-09-30T12:56:44;6.90;;;4.32;;
31130;SDS011;20292;50.944;4.034;2022-09-30T12:59:12;11.15;;;5.30;;
31130;SDS011;20292;50.944;4.034;2022-09-30T13:01:39;10.45;;;4.97;;
31130;SDS011;20292;50.944;4.034;2022-09-30T13:14:11;9.75;;;4.97;;
31130;SDS011;20292;50.944;4.034;2022-09-30T13:19:32;5.60;;;4.78;;
31130;SDS011;20292;50.944;4.034;2022-09-30T13:27:31;6.47;;;4.60;;
31130;SDS011;20292;50.944;4.034;2022-09-30T13:29:59;7.10;;;4.00;;
31130;SDS011;20292;50.944;4.034;2022-09-30T13:32:32;8.25;;;4.40;;
31130;SDS011;20292;50.944;4.034;2022-09-30T13:35:02;8.57;;;3.88;;
31130;SDS011;20292;50.944;4.034;2022-09-30T13:40:54;9.82;;;4.40;;
31130;SDS011;20292;50.944;4.034;2022-09-30T13:46:09;8.25;;;3.90;;
31130;SDS011;20292;50.944;4.034;2022-09-30T13:49:00;4.93;;;3.53;;
31130;SDS011;20292;50.944;4.034;2022-09-30T13:51:40;5.60;;;3.47;;
31130;SDS011;20292;50.944;4.034;2022-09-30T13:54:13;6.95;;;3.30;;
31130;SDS011;20292;50.944;4.034;2022-09-30T13:57:02;12.70;;;4.50;;
31130;SDS011;20292;50.944;4.034;2022-09-30T13:59:47;9.30;;;5.90;;
31130;SDS011;20292;50.944;4.034;2022-09-30T14:08:13;5.05;;;2.90;;
31130;SDS011;20292;50.944;4.034;2022-09-30T14:11:10;6.57;;;3.25;;
31130;SDS011;20292;50.944;4.034;2022-09-30T14:14:05;4.28;;;2.80;;
31130;SDS011;20292;50.944;4.034;2022-09-30T14:17:20;4.65;;;2.80;;
31130;SDS011;20292;50.944;4.034;2022-09-30T14:20:07;3.13;;;2.38;;
31130;SDS011;20292;50.944;4.034;2022-09-30T14:22:50;5.43;;;2.92;;
31130;SDS011;20292;50.944;4.034;2022-09-30T14:25:17;3.45;;;2.35;;
31130;SDS011;20292;50.944;4.034;2022-09-30T14:27:59;6.45;;;2.30;;
31130;SDS011;20292;50.944;4.034;2022-09-30T14:30:39;7.30;;;2.72;;
31130;SDS011;20292;50.944;4.034;2022-09-30T14:33:24;6.32;;;2.55;;
31130;SDS011;20292;50.944;4.034;2022-09-30T14:38:19;3.67;;;2.17;;
31130;SDS011;20292;50.944;4.034;2022-09-30T14:40:54;8.93;;;2.60;;
31130;SDS011;20292;50.944;4.034;2022-09-30T14:43:23;4.70;;;2.22;;
31130;SDS011;20292;50.944;4.034;2022-09-30T14:45:58;4.70;;;2.63;;
31130;SDS011;20292;50.944;4.034;2022-09-30T14:48:32;6.25;;;2.55;;
31130;SDS011;20292;50.944;4.034;2022-09-30T14:51:08;4.40;;;2.60;;
31130;SDS011;20292;50.944;4.034;2022-09-30T14:53:40;5.40;;;2.47;;
31130;SDS011;20292;50.944;4.034;2022-09-30T14:56:20;6.20;;;2.47;;
31130;SDS011;20292;50.944;4.034;2022-09-30T14:58:51;4.65;;;2.42;;
31130;SDS011;20292;50.944;4.034;2022-09-30T15:01:18;6.85;;;2.30;;
31130;SDS011;20292;50.944;4.034;2022-09-30T15:03:57;3.30;;;2.03;;
31130;SDS011;20292;50.944;4.034;2022-09-30T15:06:32;4.38;;;2.35;;
31130;SDS011;20292;50.944;4.034;2022-09-30T15:09:05;10.07;;;2.67;;
31130;SDS011;20292;50.944;4.034;2022-09-30T15:11:38;4.65;;;2.40;;
31130;SDS011;20292;50.944;4.034;2022-09-30T15:14:05;5.57;;;2.38;;
31130;SDS011;20292;50.944;4.034;2022-09-30T15:16:43;6.93;;;2.63;;
31130;SDS011;20292;50.944;4.034;2022-09-30T15:19:16;5.45;;;3.10;;
31130;SDS011;20292;50.944;4.034;2022-09-30T15:21:47;12.60;;;6.25;;
31130;SDS011;20292;50.944;4.034;2022-09-30T15:24:15;6.90;;;3.80;;
31130;SDS011;20292;50.944;4.034;2022-09-30T15:26:43;4.20;;;3.08;;
31130;SDS011;20292;50.944;4.034;2022-09-30T15:29:11;7.22;;;4.13;;
31130;SDS011;20292;50.944;4.034;2022-09-30T15:31:43;5.35;;;3.63;;
31130;SDS011;20292;50.944;4.034;2022-09-30T15:34:17;7.05;;;3.35;;
31130;SDS011;20292;50.944;4.034;2022-09-30T15:36:45;7.05;;;2.95;;
31130;SDS011;20292;50.944;4.034;2022-09-30T15:39:19;8.20;;;3.25;;
31130;SDS011;20292;50.944;4.034;2022-09-30T15:42:10;8.00;;;3.25;;
31130;SDS011;20292;50.944;4.034;2022-09-30T15:44:37;9.80;;;3.30;;
31130;SDS011;20292;50.944;4.034;2022-09-30T15:47:04;11.95;;;3.15;;
31130;SDS011;20292;50.944;4.034;2022-09-30T15:49:42;8.63;;;3.15;;
31130;SDS011;20292;50.944;4.034;2022-09-30T15:52:20;6.68;;;4.70;;
31130;SDS011;20292;50.944;4.034;2022-09-30T15:54:53;4.45;;;3.17;;
31130;SDS011;20292;50.944;4.034;2022-09-30T16:00:29;6.00;;;2.60;;
31130;SDS011;20292;50.944;4.034;2022-09-30T16:05:45;5.43;;;2.45;;
31130;SDS011;20292;50.944;4.034;2022-09-30T16:08:13;4.50;;;2.83;;
31130;SDS011;20292;50.944;4.034;2022-09-30T16:10:48;6.07;;;2.60;;
31130;SDS011;20292;50.944;4.034;2022-09-30T16:13:22;5.90;;;2.50;;
31130;SDS011;20292;50.944;4.034;2022-09-30T16:15:53;4.47;;;2.10;;
31130;SDS011;20292;50.944;4.034;2022-09-30T16:18:23;4.07;;;2.40;;
31130;SDS011;20292;50.944;4.034;2022-09-30T16:21:22;4.32;;;2.25;;
31130;SDS011;20292;50.944;4.034;2022-09-30T16:23:54;7.40;;;3.58;;
31130;SDS011;20292;50.944;4.034;2022-09-30T16:26:21;13.70;;;4.15;;
31130;SDS011;20292;50.944;4.034;2022-09-30T16:28:52;7.47;;;3.13;;
31130;SDS011;20292;50.944;4.034;2022-09-30T16:31:20;4.53;;;2.75;;
31130;SDS011;20292;50.944;4.034;2022-09-30T16:33:49;14.43;;;6.65;;
31130;SDS011;20292;50.944;4.034;2022-09-30T16:36:14;11.40;;;5.55;;
31130;SDS011;20292;50.944;4.034;2022-09-30T16:38:40;6.50;;;2.60;;
31130;SDS011;20292;50.944;4.034;2022-09-30T16:41:08;6.30;;;2.92;;
31130;SDS011;20292;50.944;4.034;2022-09-30T16:43:38;5.68;;;2.75;;
31130;SDS011;20292;50.944;4.034;2022-09-30T16:46:04;6.05;;;3.05;;
31130;SDS011;20292;50.944;4.034;2022-09-30T16:48:30;7.30;;;3.00;;
31130;SDS011;20292;50.944;4.034;2022-09-30T16:51:06;5.13;;;3.15;;
31130;SDS011;20292;50.944;4.034;2022-09-30T16:53:39;5.28;;;2.75;;
31130;SDS011;20292;50.944;4.034;2022-09-30T16:56:07;3.67;;;2.30;;
31130;SDS011;20292;50.944;4.034;2022-09-30T16:58:40;4.68;;;2.47;;
31130;SDS011;20292;50.944;4.034;2022-09-30T17:01:11;5.90;;;2.55;;
31130;SDS011;20292;50.944;4.034;2022-09-30T17:03:46;5.85;;;2.88;;
31130;SDS011;20292;50.944;4.034;2022-09-30T17:06:15;6.30;;;2.80;;
31130;SDS011;20292;50.944;4.034;2022-09-30T17:08:43;11.10;;;3.20;;
31130;SDS011;20292;50.944;4.034;2022-09-30T17:11:09;8.35;;;4.50;;
31130;SDS011;20292;50.944;4.034;2022-09-30T17:13:35;4.50;;;2.47;;
31130;SDS011;20292;50.944;4.034;2022-09-30T17:16:01;6.03;;;2.40;;
31130;SDS011;20292;50.944;4.034;2022-09-30T17:18:27;5.25;;;2.30;;
31130;SDS011;20292;50.944;4.034;2022-09-30T17:20:52;4.15;;;2.17;;
31130;SDS011;20292;50.944;4.034;2022-09-30T17:23:20;4.88;;;2.45;;
31130;SDS011;20292;50.944;4.034;2022-09-30T17:25:47;7.35;;;2.83;;
31130;SDS011;20292;50.944;4.034;2022-09-30T17:28:13;7.35;;;2.90;;
31130;SDS011;20292;50.944;4.034;2022-09-30T17:30:40;5.10;;;2.97;;
31130;SDS011;20292;50.944;4.034;2022-09-30T17:33:08;7.40;;;2.92;;
31130;SDS011;20292;50.944;4.034;2022-09-30T17:35:37;6.55;;;3.03;;
31130;SDS011;20292;50.944;4.034;2022-09-30T17:38:05;6.32;;;2.50;;
31130;SDS011;20292;50.944;4.034;2022-09-30T17:40:37;4.55;;;2.83;;
31130;SDS011;20292;50.944;4.034;2022-09-30T17:43:22;5.07;;;2.88;;
31130;SDS011;20292;50.944;4.034;2022-09-30T17:45:48;5.65;;;3.17;;
31130;SDS011;20292;50.944;4.034;2022-09-30T17:48:19;6.45;;;3.20;;
31130;SDS011;20292;50.944;4.034;2022-09-30T17:50:46;7.80;;;2.90;;
31130;SDS011;20292;50.944;4.034;2022-09-30T17:53:13;7.22;;;3.25;;
31130;SDS011;20292;50.944;4.034;2022-09-30T17:55:43;8.07;;;3.25;;